This is the latest recevied weather packets stored in our database for station/object G6FJI-13. If no packets are shown the sender has not sent any weather packets the latest 10 day(s).
| Time | Temp. | Humidity | Pressure | Rain* | Wind** | Luminosity | Snow |
|---|---|---|---|---|---|---|---|
| 1777671676 | 14.44° C | 86% | 1022.5 hPa | 0 mm | - | 0 W/m² | - |
| 1777668018 | 15° C | 83% | 1022.6 hPa | 0 mm | - | 0 W/m² | - |
| 1777666176 | 15° C | 84% | 1022.4 hPa | 0 mm | - | 0 W/m² | - |
| 1777662518 | 16.11° C | 82% | 1022 hPa | 0 mm | - | 5 W/m² | - |
| 1777659585 | 17.78° C | 77% | 1021.9 hPa | 0 mm | - | 19 W/m² | - |
| 1777658941 | 18.33° C | 76% | 1021.8 hPa | 0 mm | - | 24 W/m² | - |
| 1777655879 | 19.44° C | 66% | 1021.5 hPa | 0 mm | - | 38 W/m² | - |
| 1777651110 | 21.67° C | 64% | 1021.7 hPa | 0 mm | - | 97 W/m² | - |
| 1777648711 | 21.67° C | 62% | 1021.9 hPa | 0 mm | - | 121 W/m² | - |
| 1777647445 | 22.78° C | 60% | 1022 hPa | 0 mm | - | 97 W/m² | - |
| 1777636632 | 23.89° C | 41% | 1022.3 hPa | 0 mm | - | 618 W/m² | - |
| 1777635433 | 22.78° C | 42% | 1022.4 hPa | 0 mm | - | 603 W/m² | - |
| 1777628746 | 20° C | 47% | 1022.8 hPa | 0 mm | - | 166 W/m² | - |
| 1777625780 | 18.33° C | 48% | 1023 hPa | 0 mm | - | 72 W/m² | - |
| 1777618509 | 13.89° C | 57% | 1022.9 hPa | 0 mm | - | 29 W/m² | - |
| 1777617310 | 12.78° C | 61% | 1022.9 hPa | 0 mm | - | 26 W/m² | - |
| 1777616005 | 11.67° C | 63% | 1022.8 hPa | 0 mm | - | 21 W/m² | - |
| 1777613548 | 8.33° C | 79% | 1022.6 hPa | 0 mm | - | 13 W/m² | - |
| 1777612369 | 7.78° C | 79% | 1022.9 hPa | 0 mm | - | 9 W/m² | - |
| 1777610594 | 7.78° C | 79% | 1022.5 hPa | 0 mm | - | 2 W/m² | - |
| 1777609395 | 7.78° C | 78% | 1022.6 hPa | 0 mm | - | 0 W/m² | - |
| 1777607552 | 7.78° C | 78% | 1022.5 hPa | 0 mm | - | 0 W/m² | - |
| 1777601000 | 8.33° C | 74% | 1022.9 hPa | 0 mm | - | 0 W/m² | - |
| 1777596683 | 8.89° C | 73% | 1023.6 hPa | 0 mm | - | 0 W/m² | - |
| 1777591826 | 9.44° C | 68% | 1023.7 hPa | 0 mm | - | 0 W/m² | - |
* Rain latest hour (hover to see other rain measurements)
** Current wind speed in m/s (hover to see current wind gust speed)